sensor_id;sensor_type;location;lat;lon;timestamp;noise_LAeq;noise_LA_min;noise_LA_max;noise_LA01;noise_LA95
49732;Laerm;43666;51.442;6.778;2023-04-09T00:01:14;36.81;30.89;48.71;;
49732;Laerm;43666;51.442;6.778;2023-04-09T00:03:39;36.86;28.67;42.47;;
49732;Laerm;43666;51.442;6.778;2023-04-09T00:06:05;36.81;31.68;40.80;;
49732;Laerm;43666;51.442;6.778;2023-04-09T00:08:31;36.79;30.89;39.70;;
49732;Laerm;43666;51.442;6.778;2023-04-09T00:10:58;36.88;30.89;39.99;;
49732;Laerm;43666;51.442;6.778;2023-04-09T00:13:23;36.87;30.89;39.81;;
49732;Laerm;43666;51.442;6.778;2023-04-09T00:15:49;36.80;28.67;42.35;;
49732;Laerm;43666;51.442;6.778;2023-04-09T00:18:15;36.88;29.92;42.47;;
49732;Laerm;43666;51.442;6.778;2023-04-09T00:20:44;36.81;30.89;40.13;;
49732;Laerm;43666;51.442;6.778;2023-04-09T00:23:13;36.82;29.92;41.11;;
49732;Laerm;43666;51.442;6.778;2023-04-09T00:25:40;36.91;29.92;50.69;;
49732;Laerm;43666;51.442;6.778;2023-04-09T00:28:07;36.96;29.92;41.06;;
49732;Laerm;43666;51.442;6.778;2023-04-09T00:30:32;36.91;30.89;52.11;;
49732;Laerm;43666;51.442;6.778;2023-04-09T00:32:59;37.02;28.67;50.84;;
49732;Laerm;43666;51.442;6.778;2023-04-09T00:35:25;36.96;30.89;50.44;;
49732;Laerm;43666;51.442;6.778;2023-04-09T00:37:50;37.12;29.92;59.30;;
49732;Laerm;43666;51.442;6.778;2023-04-09T00:40:16;37.09;29.92;60.94;;
49732;Laerm;43666;51.442;6.778;2023-04-09T00:42:42;37.26;28.67;58.95;;
49732;Laerm;43666;51.442;6.778;2023-04-09T00:45:08;37.44;28.67;59.42;;
49732;Laerm;43666;51.442;6.778;2023-04-09T00:47:34;37.47;28.67;58.99;;
49732;Laerm;43666;51.442;6.778;2023-04-09T00:50:01;37.54;29.92;58.34;;
49732;Laerm;43666;51.442;6.778;2023-04-09T00:52:28;37.93;28.32;60.39;;
49732;Laerm;43666;51.442;6.778;2023-04-09T00:55:00;37.30;29.92;58.85;;
49732;Laerm;43666;51.442;6.778;2023-04-09T00:57:25;37.21;28.67;55.70;;
49732;Laerm;43666;51.442;6.778;2023-04-09T00:59:53;37.39;29.92;58.04;;
49732;Laerm;43666;51.442;6.778;2023-04-09T01:02:20;37.57;28.67;62.90;;
49732;Laerm;43666;51.442;6.778;2023-04-09T01:04:45;37.42;28.67;60.25;;
49732;Laerm;43666;51.442;6.778;2023-04-09T01:07:25;37.88;29.92;59.45;;
49732;Laerm;43666;51.442;6.778;2023-04-09T01:10:00;38.18;28.67;61.55;;
49732;Laerm;43666;51.442;6.778;2023-04-09T01:12:32;38.22;29.92;59.69;;
49732;Laerm;43666;51.442;6.778;2023-04-09T01:15:02;37.99;29.92;60.30;;
49732;Laerm;43666;51.442;6.778;2023-04-09T01:17:35;38.43;26.91;60.66;;
49732;Laerm;43666;51.442;6.778;2023-04-09T01:20:04;39.53;28.67;61.24;;
49732;Laerm;43666;51.442;6.778;2023-04-09T01:22:43;39.66;28.67;62.34;;
49732;Laerm;43666;51.442;6.778;2023-04-09T01:28:07;39.83;5.00;63.53;;
49732;Laerm;43666;51.442;6.778;2023-04-09T01:30:34;38.22;30.89;64.03;;
49732;Laerm;43666;51.442;6.778;2023-04-09T01:33:01;37.86;28.67;61.74;;
49732;Laerm;43666;51.442;6.778;2023-04-09T01:35:28;37.47;23.90;59.57;;
49732;Laerm;43666;51.442;6.778;2023-04-09T01:37:54;37.59;26.91;62.84;;
49732;Laerm;43666;51.442;6.778;2023-04-09T01:40:20;37.71;28.67;59.96;;
49732;Laerm;43666;51.442;6.778;2023-04-09T01:42:46;38.57;28.67;62.48;;
49732;Laerm;43666;51.442;6.778;2023-04-09T01:45:13;38.31;29.92;60.68;;
49732;Laerm;43666;51.442;6.778;2023-04-09T01:47:41;38.56;26.91;61.25;;
49732;Laerm;43666;51.442;6.778;2023-04-09T01:50:07;37.84;28.67;60.69;;
49732;Laerm;43666;51.442;6.778;2023-04-09T01:52:33;38.55;23.55;61.88;;
49732;Laerm;43666;51.442;6.778;2023-04-09T01:54:59;38.92;29.92;62.09;;
49732;Laerm;43666;51.442;6.778;2023-04-09T01:57:25;39.12;26.91;60.93;;
49732;Laerm;43666;51.442;6.778;2023-04-09T01:59:55;39.36;28.67;64.01;;
49732;Laerm;43666;51.442;6.778;2023-04-09T02:02:24;36.68;30.89;40.03;;
49732;Laerm;43666;51.442;6.778;2023-04-09T02:04:52;36.66;29.92;39.70;;
49732;Laerm;43666;51.442;6.778;2023-04-09T02:09:46;36.56;29.92;39.58;;
49732;Laerm;43666;51.442;6.778;2023-04-09T02:12:13;36.48;26.91;39.70;;
49732;Laerm;43666;51.442;6.778;2023-04-09T02:14:40;36.49;26.91;39.81;;
49732;Laerm;43666;51.442;6.778;2023-04-09T02:17:07;36.51;29.92;39.70;;
49732;Laerm;43666;51.442;6.778;2023-04-09T02:22:04;36.53;29.92;39.58;;
49732;Laerm;43666;51.442;6.778;2023-04-09T02:24:29;36.46;28.67;39.58;;
49732;Laerm;43666;51.442;6.778;2023-04-09T02:26:55;36.41;28.67;39.70;;
49732;Laerm;43666;51.442;6.778;2023-04-09T02:29:21;36.41;29.92;40.03;;
49732;Laerm;43666;51.442;6.778;2023-04-09T02:31:46;36.46;29.92;39.46;;
49732;Laerm;43666;51.442;6.778;2023-04-09T02:34:12;36.47;28.67;39.58;;
49732;Laerm;43666;51.442;6.778;2023-04-09T02:36:38;36.44;30.89;39.92;;
49732;Laerm;43666;51.442;6.778;2023-04-09T02:39:04;36.49;28.67;39.58;;
49732;Laerm;43666;51.442;6.778;2023-04-09T02:41:32;36.49;28.67;39.70;;
49732;Laerm;43666;51.442;6.778;2023-04-09T02:43:58;36.53;28.67;39.81;;
49732;Laerm;43666;51.442;6.778;2023-04-09T02:46:24;36.49;28.67;39.92;;
49732;Laerm;43666;51.442;6.778;2023-04-09T02:48:50;36.53;28.67;39.81;;
49732;Laerm;43666;51.442;6.778;2023-04-09T02:51:16;36.44;28.67;39.58;;
49732;Laerm;43666;51.442;6.778;2023-04-09T02:53:42;36.46;28.67;39.81;;
49732;Laerm;43666;51.442;6.778;2023-04-09T02:56:08;36.42;29.92;39.34;;
49732;Laerm;43666;51.442;6.778;2023-04-09T02:58:37;36.49;28.67;39.58;;
49732;Laerm;43666;51.442;6.778;2023-04-09T03:01:03;36.49;28.67;39.46;;
49732;Laerm;43666;51.442;6.778;2023-04-09T03:03:29;36.50;29.92;40.13;;
49732;Laerm;43666;51.442;6.778;2023-04-09T03:05:56;36.49;28.67;39.46;;
49732;Laerm;43666;51.442;6.778;2023-04-09T03:08:21;36.41;30.89;39.58;;
49732;Laerm;43666;51.442;6.778;2023-04-09T03:10:47;36.42;29.57;39.70;;
49732;Laerm;43666;51.442;6.778;2023-04-09T03:13:12;36.43;30.89;39.81;;
49732;Laerm;43666;51.442;6.778;2023-04-09T03:15:38;36.47;30.89;39.70;;
49732;Laerm;43666;51.442;6.778;2023-04-09T03:18:04;36.44;28.67;39.46;;
49732;Laerm;43666;51.442;6.778;2023-04-09T03:20:30;36.40;28.67;39.92;;
49732;Laerm;43666;51.442;6.778;2023-04-09T03:22:56;36.43;28.67;39.81;;
49732;Laerm;43666;51.442;6.778;2023-04-09T03:25:21;36.45;28.67;40.23;;
49732;Laerm;43666;51.442;6.778;2023-04-09T03:27:47;36.46;28.67;39.58;;
49732;Laerm;43666;51.442;6.778;2023-04-09T03:30:12;36.46;29.92;39.92;;
49732;Laerm;43666;51.442;6.778;2023-04-09T03:32:38;36.45;28.67;39.58;;
49732;Laerm;43666;51.442;6.778;2023-04-09T03:35:04;36.46;26.91;39.70;;
49732;Laerm;43666;51.442;6.778;2023-04-09T03:37:30;36.41;26.91;39.70;;
49732;Laerm;43666;51.442;6.778;2023-04-09T03:39:55;36.45;28.67;39.58;;
49732;Laerm;43666;51.442;6.778;2023-04-09T03:42:21;36.43;26.91;39.70;;
49732;Laerm;43666;51.442;6.778;2023-04-09T03:44:47;36.40;28.67;39.70;;
49732;Laerm;43666;51.442;6.778;2023-04-09T03:47:13;36.41;26.91;39.70;;
49732;Laerm;43666;51.442;6.778;2023-04-09T03:49:39;36.40;29.57;39.34;;
49732;Laerm;43666;51.442;6.778;2023-04-09T03:52:05;36.40;29.92;39.58;;
49732;Laerm;43666;51.442;6.778;2023-04-09T03:54:32;36.36;26.91;39.46;;
49732;Laerm;43666;51.442;6.778;2023-04-09T03:56:57;36.45;23.90;39.70;;
49732;Laerm;43666;51.442;6.778;2023-04-09T03:59:23;36.41;28.67;39.46;;
49732;Laerm;43666;51.442;6.778;2023-04-09T04:01:50;36.44;26.91;40.43;;
49732;Laerm;43666;51.442;6.778;2023-04-09T04:04:15;36.39;26.91;39.70;;
49732;Laerm;43666;51.442;6.778;2023-04-09T04:06:41;36.38;28.67;39.46;;
49732;Laerm;43666;51.442;6.778;2023-04-09T04:09:07;36.38;28.67;39.70;;
49732;Laerm;43666;51.442;6.778;2023-04-09T04:11:33;36.36;26.91;39.81;;
49732;Laerm;43666;51.442;6.778;2023-04-09T04:13:59;36.37;26.91;39.70;;
49732;Laerm;43666;51.442;6.778;2023-04-09T04:16:25;36.33;28.67;39.70;;
49732;Laerm;43666;51.442;6.778;2023-04-09T04:18:51;36.38;28.67;39.58;;
49732;Laerm;43666;51.442;6.778;2023-04-09T04:21:17;36.37;28.67;39.58;;
49732;Laerm;43666;51.442;6.778;2023-04-09T04:23:43;36.25;29.92;39.58;;
49732;Laerm;43666;51.442;6.778;2023-04-09T04:26:09;36.34;29.92;39.46;;
49732;Laerm;43666;51.442;6.778;2023-04-09T04:28:35;36.35;28.67;39.70;;
49732;Laerm;43666;51.442;6.778;2023-04-09T04:31:01;36.31;26.91;39.46;;
49732;Laerm;43666;51.442;6.778;2023-04-09T04:33:28;36.36;29.92;39.81;;
49732;Laerm;43666;51.442;6.778;2023-04-09T04:35:53;36.34;26.91;39.46;;
49732;Laerm;43666;51.442;6.778;2023-04-09T04:38:28;36.37;29.92;40.03;;
49732;Laerm;43666;51.442;6.778;2023-04-09T04:40:54;36.39;26.91;39.70;;
49732;Laerm;43666;51.442;6.778;2023-04-09T04:43:20;36.36;26.91;39.92;;
49732;Laerm;43666;51.442;6.778;2023-04-09T04:45:46;36.32;28.67;39.81;;
49732;Laerm;43666;51.442;6.778;2023-04-09T04:48:12;36.29;28.67;39.46;;
49732;Laerm;43666;51.442;6.778;2023-04-09T04:50:38;36.35;28.67;39.70;;
49732;Laerm;43666;51.442;6.778;2023-04-09T04:53:04;36.38;28.67;39.70;;
49732;Laerm;43666;51.442;6.778;2023-04-09T04:55:30;36.33;28.67;39.70;;
49732;Laerm;43666;51.442;6.778;2023-04-09T04:57:56;36.40;26.91;39.92;;
49732;Laerm;43666;51.442;6.778;2023-04-09T05:00:22;36.42;28.67;39.81;;
49732;Laerm;43666;51.442;6.778;2023-04-09T05:02:48;36.43;28.67;39.81;;
49732;Laerm;43666;51.442;6.778;2023-04-09T05:05:13;36.42;29.92;40.03;;
49732;Laerm;43666;51.442;6.778;2023-04-09T05:07:40;36.40;28.32;39.92;;
49732;Laerm;43666;51.442;6.778;2023-04-09T05:10:05;36.38;29.92;39.70;;
49732;Laerm;43666;51.442;6.778;2023-04-09T05:12:32;36.50;28.67;39.70;;
49732;Laerm;43666;51.442;6.778;2023-04-09T05:14:58;36.38;26.91;40.33;;
49732;Laerm;43666;51.442;6.778;2023-04-09T05:17:24;36.38;28.67;40.03;;
49732;Laerm;43666;51.442;6.778;2023-04-09T05:19:53;36.29;26.91;39.34;;
49732;Laerm;43666;51.442;6.778;2023-04-09T05:22:19;36.38;29.92;39.70;;
49732;Laerm;43666;51.442;6.778;2023-04-09T05:24:45;36.32;23.90;39.58;;
49732;Laerm;43666;51.442;6.778;2023-04-09T05:27:11;36.24;28.67;39.58;;
49732;Laerm;43666;51.442;6.778;2023-04-09T05:29:37;36.29;26.91;39.58;;
49732;Laerm;43666;51.442;6.778;2023-04-09T05:32:02;36.30;29.92;39.58;;
49732;Laerm;43666;51.442;6.778;2023-04-09T05:34:29;36.25;28.67;40.03;;
49732;Laerm;43666;51.442;6.778;2023-04-09T05:36:55;36.34;26.91;39.70;;
49732;Laerm;43666;51.442;6.778;2023-04-09T05:39:21;36.32;29.92;39.46;;
49732;Laerm;43666;51.442;6.778;2023-04-09T05:41:47;36.40;28.67;39.92;;
49732;Laerm;43666;51.442;6.778;2023-04-09T05:44:13;36.39;28.67;39.70;;
49732;Laerm;43666;51.442;6.778;2023-04-09T05:46:39;36.37;26.91;39.58;;
49732;Laerm;43666;51.442;6.778;2023-04-09T05:49:05;36.33;28.67;39.34;;
49732;Laerm;43666;51.442;6.778;2023-04-09T05:51:30;36.31;23.90;39.46;;
49732;Laerm;43666;51.442;6.778;2023-04-09T05:53:56;36.37;26.56;39.58;;
49732;Laerm;43666;51.442;6.778;2023-04-09T05:56:22;36.37;5.00;39.58;;
49732;Laerm;43666;51.442;6.778;2023-04-09T05:58:47;36.38;23.90;39.81;;
49732;Laerm;43666;51.442;6.778;2023-04-09T06:01:13;36.43;26.91;39.70;;
49732;Laerm;43666;51.442;6.778;2023-04-09T06:03:39;36.42;28.67;40.03;;
49732;Laerm;43666;51.442;6.778;2023-04-09T06:06:05;36.41;28.32;40.03;;
49732;Laerm;43666;51.442;6.778;2023-04-09T06:08:31;36.45;29.92;40.03;;
49732;Laerm;43666;51.442;6.778;2023-04-09T06:10:57;36.38;28.67;40.62;;
49732;Laerm;43666;51.442;6.778;2023-04-09T06:13:23;36.44;29.92;40.03;;
49732;Laerm;43666;51.442;6.778;2023-04-09T06:15:50;36.45;28.67;39.34;;
49732;Laerm;43666;51.442;6.778;2023-04-09T06:18:16;36.59;26.91;40.33;;
49732;Laerm;43666;51.442;6.778;2023-04-09T06:20:42;36.54;28.67;39.81;;
49732;Laerm;43666;51.442;6.778;2023-04-09T06:23:08;36.60;29.92;40.03;;
49732;Laerm;43666;51.442;6.778;2023-04-09T06:25:34;36.53;23.90;40.13;;
49732;Laerm;43666;51.442;6.778;2023-04-09T06:28:00;36.47;30.89;40.23;;
49732;Laerm;43666;51.442;6.778;2023-04-09T06:30:27;36.47;28.67;39.58;;
49732;Laerm;43666;51.442;6.778;2023-04-09T06:32:53;36.47;29.92;39.81;;
49732;Laerm;43666;51.442;6.778;2023-04-09T06:35:20;36.46;29.57;40.13;;
49732;Laerm;43666;51.442;6.778;2023-04-09T06:37:46;36.53;29.92;39.58;;
49732;Laerm;43666;51.442;6.778;2023-04-09T06:40:12;36.52;29.92;39.70;;
49732;Laerm;43666;51.442;6.778;2023-04-09T06:42:37;36.46;28.67;40.13;;
49732;Laerm;43666;51.442;6.778;2023-04-09T06:45:03;36.44;28.67;39.81;;
49732;Laerm;43666;51.442;6.778;2023-04-09T06:47:33;36.45;28.67;40.88;;
49732;Laerm;43666;51.442;6.778;2023-04-09T06:49:59;36.45;29.92;39.34;;
49732;Laerm;43666;51.442;6.778;2023-04-09T06:52:25;36.52;30.89;39.81;;
49732;Laerm;43666;51.442;6.778;2023-04-09T06:54:50;36.47;28.67;39.58;;
49732;Laerm;43666;51.442;6.778;2023-04-09T06:57:16;36.53;29.92;39.58;;
49732;Laerm;43666;51.442;6.778;2023-04-09T06:59:43;36.51;29.92;39.58;;
49732;Laerm;43666;51.442;6.778;2023-04-09T07:02:08;36.53;28.67;39.58;;
49732;Laerm;43666;51.442;6.778;2023-04-09T07:04:34;36.50;29.92;40.23;;
49732;Laerm;43666;51.442;6.778;2023-04-09T07:06:59;36.47;28.67;39.81;;
49732;Laerm;43666;51.442;6.778;2023-04-09T07:09:25;36.54;30.89;39.81;;
49732;Laerm;43666;51.442;6.778;2023-04-09T07:11:51;36.64;28.67;40.03;;
49732;Laerm;43666;51.442;6.778;2023-04-09T07:14:16;36.62;29.92;40.23;;
49732;Laerm;43666;51.442;6.778;2023-04-09T07:16:42;36.60;23.90;39.92;;
49732;Laerm;43666;51.442;6.778;2023-04-09T07:19:11;36.69;29.57;41.46;;
49732;Laerm;43666;51.442;6.778;2023-04-09T07:21:37;36.66;30.89;40.03;;
49732;Laerm;43666;51.442;6.778;2023-04-09T07:24:02;36.61;28.67;40.53;;
49732;Laerm;43666;51.442;6.778;2023-04-09T07:26:28;36.64;29.92;39.81;;
49732;Laerm;43666;51.442;6.778;2023-04-09T07:28:54;36.55;30.89;39.89;;
49732;Laerm;43666;51.442;6.778;2023-04-09T07:31:20;36.61;30.54;40.13;;
49732;Laerm;43666;51.442;6.778;2023-04-09T07:33:46;36.63;30.89;39.70;;
49732;Laerm;43666;51.442;6.778;2023-04-09T07:36:11;36.64;30.89;39.70;;
49732;Laerm;43666;51.442;6.778;2023-04-09T07:38:37;36.71;28.67;39.81;;
49732;Laerm;43666;51.442;6.778;2023-04-09T07:41:03;36.68;30.89;39.92;;
49732;Laerm;43666;51.442;6.778;2023-04-09T07:43:30;36.66;29.92;39.81;;
49732;Laerm;43666;51.442;6.778;2023-04-09T07:45:56;36.68;30.89;39.81;;
49732;Laerm;43666;51.442;6.778;2023-04-09T07:48:22;36.69;29.92;40.03;;
49732;Laerm;43666;51.442;6.778;2023-04-09T07:50:48;36.82;30.89;40.03;;
49732;Laerm;43666;51.442;6.778;2023-04-09T07:53:13;36.78;28.67;41.06;;
49732;Laerm;43666;51.442;6.778;2023-04-09T07:55:39;36.82;29.92;40.13;;
49732;Laerm;43666;51.442;6.778;2023-04-09T07:58:05;36.60;29.92;39.81;;
49732;Laerm;43666;51.442;6.778;2023-04-09T08:00:32;36.65;30.89;39.81;;
49732;Laerm;43666;51.442;6.778;2023-04-09T08:02:58;36.61;29.92;39.46;;
49732;Laerm;43666;51.442;6.778;2023-04-09T08:05:24;36.69;28.67;39.46;;
49732;Laerm;43666;51.442;6.778;2023-04-09T08:07:49;36.63;29.92;39.58;;
49732;Laerm;43666;51.442;6.778;2023-04-09T08:10:15;36.60;30.89;39.58;;
49732;Laerm;43666;51.442;6.778;2023-04-09T08:12:41;36.57;28.67;40.03;;
49732;Laerm;43666;51.442;6.778;2023-04-09T08:15:07;36.53;23.90;39.58;;
49732;Laerm;43666;51.442;6.778;2023-04-09T08:17:33;36.65;28.67;39.58;;
49732;Laerm;43666;51.442;6.778;2023-04-09T08:20:01;36.78;30.89;40.62;;
49732;Laerm;43666;51.442;6.778;2023-04-09T08:22:27;36.64;29.92;39.81;;
49732;Laerm;43666;51.442;6.778;2023-04-09T08:24:55;36.83;30.89;39.92;;
49732;Laerm;43666;51.442;6.778;2023-04-09T08:27:22;36.73;29.92;39.58;;
49732;Laerm;43666;51.442;6.778;2023-04-09T08:29:48;36.75;30.89;39.92;;
49732;Laerm;43666;51.442;6.778;2023-04-09T08:32:14;36.80;30.89;40.13;;
49732;Laerm;43666;51.442;6.778;2023-04-09T08:34:40;36.77;31.68;39.81;;
49732;Laerm;43666;51.442;6.778;2023-04-09T08:37:06;36.90;30.89;40.03;;
49732;Laerm;43666;51.442;6.778;2023-04-09T08:39:32;36.82;29.92;40.03;;
49732;Laerm;43666;51.442;6.778;2023-04-09T08:41:58;36.85;30.89;39.70;;
49732;Laerm;43666;51.442;6.778;2023-04-09T08:44:28;36.80;31.68;39.58;;
49732;Laerm;43666;51.442;6.778;2023-04-09T08:46:54;36.88;31.68;40.23;;
49732;Laerm;43666;51.442;6.778;2023-04-09T08:49:20;36.84;30.89;39.81;;
49732;Laerm;43666;51.442;6.778;2023-04-09T08:51:46;36.87;30.89;39.70;;
49732;Laerm;43666;51.442;6.778;2023-04-09T08:54:17;36.80;29.92;39.81;;
49732;Laerm;43666;51.442;6.778;2023-04-09T08:56:44;36.81;31.68;39.92;;
49732;Laerm;43666;51.442;6.778;2023-04-09T08:59:13;36.88;31.33;39.58;;
49732;Laerm;43666;51.442;6.778;2023-04-09T09:01:39;36.91;31.68;40.03;;
49732;Laerm;43666;51.442;6.778;2023-04-09T09:04:05;37.00;31.68;40.03;;
49732;Laerm;43666;51.442;6.778;2023-04-09T09:06:32;36.97;30.89;40.43;;
49732;Laerm;43666;51.442;6.778;2023-04-09T09:08:59;37.01;30.89;40.03;;
49732;Laerm;43666;51.442;6.778;2023-04-09T09:11:25;37.01;29.92;40.13;;
49732;Laerm;43666;51.442;6.778;2023-04-09T09:14:04;37.09;32.35;40.23;;
49732;Laerm;43666;51.442;6.778;2023-04-09T09:16:31;37.16;28.67;40.33;;
49732;Laerm;43666;51.442;6.778;2023-04-09T09:18:59;37.11;31.68;39.81;;
49732;Laerm;43666;51.442;6.778;2023-04-09T09:21:26;37.07;30.89;40.13;;
49732;Laerm;43666;51.442;6.778;2023-04-09T09:23:53;37.01;32.35;39.70;;
49732;Laerm;43666;51.442;6.778;2023-04-09T09:26:20;37.01;31.68;39.81;;
49732;Laerm;43666;51.442;6.778;2023-04-09T09:28:46;37.06;30.89;40.53;;
49732;Laerm;43666;51.442;6.778;2023-04-09T09:31:13;37.09;32.35;41.19;;
49732;Laerm;43666;51.442;6.778;2023-04-09T09:33:39;37.16;32.35;40.33;;
49732;Laerm;43666;51.442;6.778;2023-04-09T09:36:05;37.12;30.89;40.33;;
49732;Laerm;43666;51.442;6.778;2023-04-09T09:38:34;37.12;31.68;39.81;;
49732;Laerm;43666;51.442;6.778;2023-04-09T09:41:15;37.21;31.68;39.81;;
49732;Laerm;43666;51.442;6.778;2023-04-09T09:43:42;37.17;32.35;40.23;;
49732;Laerm;43666;51.442;6.778;2023-04-09T09:46:09;37.12;32.35;39.81;;
49732;Laerm;43666;51.442;6.778;2023-04-09T09:48:35;37.16;31.68;39.81;;
49732;Laerm;43666;51.442;6.778;2023-04-09T09:51:02;37.13;32.35;39.92;;
49732;Laerm;43666;51.442;6.778;2023-04-09T09:53:28;37.17;32.93;40.33;;
49732;Laerm;43666;51.442;6.778;2023-04-09T09:55:54;37.23;31.68;40.13;;
49732;Laerm;43666;51.442;6.778;2023-04-09T09:58:22;37.25;33.44;40.03;;
49732;Laerm;43666;51.442;6.778;2023-04-09T10:00:49;37.28;32.35;40.13;;
49732;Laerm;43666;51.442;6.778;2023-04-09T10:03:21;37.30;30.89;40.03;;
49732;Laerm;43666;51.442;6.778;2023-04-09T10:05:49;37.31;32.58;39.92;;
49732;Laerm;43666;51.442;6.778;2023-04-09T10:08:16;37.25;32.35;39.92;;
49732;Laerm;43666;51.442;6.778;2023-04-09T10:10:42;37.27;32.93;39.92;;
49732;Laerm;43666;51.442;6.778;2023-04-09T10:13:19;37.22;32.35;40.13;;
49732;Laerm;43666;51.442;6.778;2023-04-09T10:15:48;37.26;33.44;40.23;;
49732;Laerm;43666;51.442;6.778;2023-04-09T10:18:15;37.29;32.35;40.23;;
49732;Laerm;43666;51.442;6.778;2023-04-09T10:20:45;37.28;5.00;41.14;;
49732;Laerm;43666;51.442;6.778;2023-04-09T10:23:17;37.23;32.93;40.13;;
49732;Laerm;43666;51.442;6.778;2023-04-09T10:25:43;37.28;32.93;40.23;;
49732;Laerm;43666;51.442;6.778;2023-04-09T10:28:14;37.27;30.89;39.81;;
49732;Laerm;43666;51.442;6.778;2023-04-09T10:30:40;37.24;31.68;40.13;;
49732;Laerm;43666;51.442;6.778;2023-04-09T10:33:11;37.28;30.89;39.92;;
49732;Laerm;43666;51.442;6.778;2023-04-09T10:35:37;37.27;32.35;39.70;;
49732;Laerm;43666;51.442;6.778;2023-04-09T10:38:06;37.22;31.68;39.81;;
49732;Laerm;43666;51.442;6.778;2023-04-09T10:40:31;37.28;31.33;40.43;;
49732;Laerm;43666;51.442;6.778;2023-04-09T10:42:57;37.29;31.68;40.08;;
49732;Laerm;43666;51.442;6.778;2023-04-09T10:45:23;37.35;32.93;39.92;;
49732;Laerm;43666;51.442;6.778;2023-04-09T10:47:52;37.37;32.35;40.53;;
49732;Laerm;43666;51.442;6.778;2023-04-09T10:50:23;37.35;32.35;40.13;;
49732;Laerm;43666;51.442;6.778;2023-04-09T10:52:51;37.32;32.93;39.99;;
49732;Laerm;43666;51.442;6.778;2023-04-09T10:57:58;37.41;32.35;40.03;;
49732;Laerm;43666;51.442;6.778;2023-04-09T11:00:24;37.44;32.35;40.23;;
49732;Laerm;43666;51.442;6.778;2023-04-09T11:05:35;37.36;32.93;40.13;;
49732;Laerm;43666;51.442;6.778;2023-04-09T11:08:11;37.41;33.44;40.03;;
49732;Laerm;43666;51.442;6.778;2023-04-09T11:10:38;37.41;32.35;39.81;;
49732;Laerm;43666;51.442;6.778;2023-04-09T11:13:04;37.34;31.68;40.33;;
49732;Laerm;43666;51.442;6.778;2023-04-09T11:15:30;37.42;32.93;39.92;;
49732;Laerm;43666;51.442;6.778;2023-04-09T11:17:57;37.43;33.44;40.03;;
49732;Laerm;43666;51.442;6.778;2023-04-09T11:20:23;37.55;33.44;40.53;;
49732;Laerm;43666;51.442;6.778;2023-04-09T11:22:50;37.48;32.93;40.03;;
49732;Laerm;43666;51.442;6.778;2023-04-09T11:25:26;37.46;32.93;40.13;;
49732;Laerm;43666;51.442;6.778;2023-04-09T11:27:52;37.55;33.44;40.03;;
49732;Laerm;43666;51.442;6.778;2023-04-09T11:30:19;37.42;32.35;40.23;;
49732;Laerm;43666;51.442;6.778;2023-04-09T11:32:45;37.43;33.44;40.03;;
49732;Laerm;43666;51.442;6.778;2023-04-09T11:35:12;37.58;32.93;40.43;;
49732;Laerm;43666;51.442;6.778;2023-04-09T11:37:39;37.58;33.90;40.43;;
49732;Laerm;43666;51.442;6.778;2023-04-09T11:40:05;37.61;34.31;40.33;;
49732;Laerm;43666;51.442;6.778;2023-04-09T11:42:30;37.49;33.44;40.13;;
49732;Laerm;43666;51.442;6.778;2023-04-09T11:44:56;37.58;33.44;40.03;;
49732;Laerm;43666;51.442;6.778;2023-04-09T11:47:23;37.62;33.55;40.23;;
49732;Laerm;43666;51.442;6.778;2023-04-09T11:49:48;37.69;34.31;39.92;;
49732;Laerm;43666;51.442;6.778;2023-04-09T11:52:14;37.68;33.90;39.92;;
49732;Laerm;43666;51.442;6.778;2023-04-09T11:54:49;37.69;34.31;40.23;;
49732;Laerm;43666;51.442;6.778;2023-04-09T11:57:15;37.72;33.44;40.53;;
49732;Laerm;43666;51.442;6.778;2023-04-09T11:59:41;37.81;34.31;40.33;;
49732;Laerm;43666;51.442;6.778;2023-04-09T12:02:07;37.66;33.90;39.92;;
49732;Laerm;43666;51.442;6.778;2023-04-09T12:04:33;37.57;33.90;40.03;;
49732;Laerm;43666;51.442;6.778;2023-04-09T12:06:59;37.64;32.93;40.23;;
49732;Laerm;43666;51.442;6.778;2023-04-09T12:09:25;37.69;34.69;40.13;;
49732;Laerm;43666;51.442;6.778;2023-04-09T12:11:51;37.62;33.90;40.13;;
49732;Laerm;43666;51.442;6.778;2023-04-09T12:14:17;37.80;33.44;40.13;;
49732;Laerm;43666;51.442;6.778;2023-04-09T12:16:43;37.87;34.69;40.23;;
49732;Laerm;43666;51.442;6.778;2023-04-09T12:19:09;37.90;33.90;40.23;;
49732;Laerm;43666;51.442;6.778;2023-04-09T12:21:52;37.90;34.69;41.22;;
49732;Laerm;43666;51.442;6.778;2023-04-09T12:24:19;37.86;33.44;40.33;;
49732;Laerm;43666;51.442;6.778;2023-04-09T12:26:46;37.75;33.90;40.33;;
49732;Laerm;43666;51.442;6.778;2023-04-09T12:29:15;37.77;33.90;40.13;;
49732;Laerm;43666;51.442;6.778;2023-04-09T12:31:41;37.74;34.31;40.71;;
49732;Laerm;43666;51.442;6.778;2023-04-09T12:34:07;37.86;33.90;40.33;;
49732;Laerm;43666;51.442;6.778;2023-04-09T12:36:34;37.88;33.44;40.27;;
49732;Laerm;43666;51.442;6.778;2023-04-09T12:39:00;37.98;33.90;40.62;;
49732;Laerm;43666;51.442;6.778;2023-04-09T12:41:26;37.90;34.31;40.43;;
49732;Laerm;43666;51.442;6.778;2023-04-09T12:43:51;37.93;34.31;40.53;;
49732;Laerm;43666;51.442;6.778;2023-04-09T12:46:17;37.96;34.69;40.43;;
49732;Laerm;43666;51.442;6.778;2023-04-09T12:48:45;37.96;34.31;40.43;;
49732;Laerm;43666;51.442;6.778;2023-04-09T12:51:14;37.98;34.31;40.53;;
49732;Laerm;43666;51.442;6.778;2023-04-09T12:53:40;37.98;34.69;40.43;;
49732;Laerm;43666;51.442;6.778;2023-04-09T12:56:06;38.09;34.69;40.43;;
49732;Laerm;43666;51.442;6.778;2023-04-09T12:58:32;38.08;33.90;40.54;;
49732;Laerm;43666;51.442;6.778;2023-04-09T13:00:58;38.04;34.69;40.62;;
49732;Laerm;43666;51.442;6.778;2023-04-09T13:03:24;37.91;34.31;40.62;;
49732;Laerm;43666;51.442;6.778;2023-04-09T13:05:50;37.96;34.34;40.62;;
49732;Laerm;43666;51.442;6.778;2023-04-09T13:08:16;38.01;34.69;40.33;;
49732;Laerm;43666;51.442;6.778;2023-04-09T13:10:42;37.97;34.31;40.62;;
49732;Laerm;43666;51.442;6.778;2023-04-09T13:13:08;38.09;34.31;40.53;;
49732;Laerm;43666;51.442;6.778;2023-04-09T13:15:38;38.02;33.90;40.53;;
49732;Laerm;43666;51.442;6.778;2023-04-09T13:18:04;38.06;34.31;40.71;;
49732;Laerm;43666;51.442;6.778;2023-04-09T13:20:30;38.09;34.69;40.62;;
49732;Laerm;43666;51.442;6.778;2023-04-09T13:22:56;38.18;34.69;40.62;;
49732;Laerm;43666;51.442;6.778;2023-04-09T13:25:21;38.22;34.69;40.89;;
49732;Laerm;43666;51.442;6.778;2023-04-09T13:27:47;38.25;35.04;40.80;;
49732;Laerm;43666;51.442;6.778;2023-04-09T13:30:13;38.29;35.04;40.71;;
49732;Laerm;43666;51.442;6.778;2023-04-09T13:32:40;38.25;35.04;40.80;;
49732;Laerm;43666;51.442;6.778;2023-04-09T13:35:06;38.26;35.04;40.43;;
49732;Laerm;43666;51.442;6.778;2023-04-09T13:37:34;38.32;35.36;40.89;;
49732;Laerm;43666;51.442;6.778;2023-04-09T13:40:00;38.33;35.04;40.62;;
49732;Laerm;43666;51.442;6.778;2023-04-09T13:42:26;38.34;34.69;40.43;;
49732;Laerm;43666;51.442;6.778;2023-04-09T13:44:52;38.40;35.04;40.71;;
49732;Laerm;43666;51.442;6.778;2023-04-09T13:47:18;38.44;34.31;40.71;;
49732;Laerm;43666;51.442;6.778;2023-04-09T13:49:44;38.37;29.92;40.98;;
49732;Laerm;43666;51.442;6.778;2023-04-09T13:52:11;38.45;35.36;40.71;;
49732;Laerm;43666;51.442;6.778;2023-04-09T13:54:36;38.44;35.04;40.71;;